DVA111 EYPA-EYVI
Flight info
| Callsign | DVA111 |
|---|---|
| Flight time | N/A |
| Altitude | 19000 |
| Route | D009E DCT NAPUS DCT MANUX DCT NEDAM DCT BILDI DCT ODETU DCT VI312 FAP |
| Aircraft | B350/L-SBGRW/S |
Departure
| Time | 2026-04-20 17:57 |
|---|---|
| Airport | Palanga International Airport (EYPA) |
Arrival
| Time | N/A |
|---|---|
| Airport | Vilnius International Airport (EYVI) |
| Time | Latitude | Longitude | Altitude | Speed | Heading |
|---|---|---|---|---|---|
| 2026-04-20 17:56 | 55.96486 | 21.09050 | 38 ft | 0 kts | 13° |
| 2026-04-20 17:56 | 55.96746 | 21.09157 | 35 ft | 92 kts | 15° |
| 2026-04-20 17:57 | 55.97584 | 21.09454 | 277 ft | 139 kts | 14° |
| 2026-04-20 17:57 | 55.98534 | 21.10090 | 778 ft | 155 kts | 42° |
| 2026-04-20 17:57 | 55.98951 | 21.11914 | 1301 ft | 169 kts | 81° |
| 2026-04-20 17:57 | 55.99176 | 21.14016 | 1784 ft | 175 kts | 71° |
| 2026-04-20 17:58 | 55.99523 | 21.15351 | 2100 ft | 175 kts | 60° |
| 2026-04-20 17:58 | 56.00174 | 21.17165 | 2565 ft | 177 kts | 57° |
| 2026-04-20 17:58 | 56.00867 | 21.18997 | 3031 ft | 180 kts | 57° |
| 2026-04-20 17:58 | 56.01578 | 21.20878 | 3489 ft | 186 kts | 58° |
| 2026-04-20 17:59 | 56.02295 | 21.22808 | 3937 ft | 185 kts | 58° |
| 2026-04-20 17:59 | 56.03005 | 21.24715 | 4392 ft | 184 kts | 58° |
| 2026-04-20 17:59 | 56.03674 | 21.26657 | 4868 ft | 183 kts | 66° |
| 2026-04-20 17:59 | 56.04031 | 21.28843 | 5343 ft | 185 kts | 81° |
| 2026-04-20 18:00 | 56.04045 | 21.31143 | 5821 ft | 187 kts | 95° |
| 2026-04-20 18:00 | 56.03697 | 21.33401 | 6303 ft | 191 kts | 111° |
| 2026-04-20 18:00 | 56.02986 | 21.35436 | 6773 ft | 196 kts | 127° |
| 2026-04-20 18:00 | 56.02051 | 21.37239 | 7239 ft | 198 kts | 128° |
| 2026-04-20 18:01 | 56.01125 | 21.39072 | 7685 ft | 199 kts | 128° |
| 2026-04-20 18:01 | 56.00190 | 21.40903 | 8145 ft | 200 kts | 128° |
| 2026-04-20 18:01 | 55.99247 | 21.42734 | 8609 ft | 200 kts | 128° |
| 2026-04-20 18:01 | 55.98302 | 21.44574 | 9081 ft | 201 kts | 127° |
| 2026-04-20 18:02 | 55.97354 | 21.46418 | 9556 ft | 201 kts | 127° |
| 2026-04-20 18:02 | 55.96415 | 21.48243 | 10143 ft | 197 kts | 127° |
| 2026-04-20 18:02 | 55.95510 | 21.50004 | 10696 ft | 193 kts | 126° |
| 2026-04-20 18:02 | 55.94593 | 21.51785 | 11272 ft | 191 kts | 126° |
| 2026-04-20 18:03 | 55.93712 | 21.53500 | 11849 ft | 189 kts | 126° |
| 2026-04-20 18:03 | 55.92823 | 21.55222 | 12441 ft | 188 kts | 126° |
| 2026-04-20 18:03 | 55.91943 | 21.56926 | 13042 ft | 186 kts | 125° |
| 2026-04-20 18:03 | 55.91069 | 21.58618 | 13650 ft | 185 kts | 125° |
| 2026-04-20 18:04 | 55.90202 | 21.60296 | 14239 ft | 184 kts | 124° |
| 2026-04-20 18:04 | 55.89337 | 21.61966 | 14801 ft | 183 kts | 124° |
| 2026-04-20 18:04 | 55.88479 | 21.63624 | 15369 ft | 181 kts | 124° |
| 2026-04-20 18:04 | 55.87626 | 21.65270 | 15956 ft | 180 kts | 124° |
| 2026-04-20 18:05 | 55.85935 | 21.68529 | 17141 ft | 177 kts | 123° |
| 2026-04-20 18:05 | 55.85112 | 21.70116 | 17744 ft | 176 kts | 123° |
| 2026-04-20 18:05 | 55.84278 | 21.71731 | 18379 ft | 178 kts | 123° |
| 2026-04-20 18:06 | 55.83431 | 21.73353 | 18949 ft | 180 kts | 123° |
| 2026-04-20 18:06 | 55.82580 | 21.74981 | 19508 ft | 180 kts | 123° |
| 2026-04-20 18:06 | 55.81727 | 21.76617 | 20080 ft | 180 kts | 123° |
| 2026-04-20 18:06 | 55.80877 | 21.78248 | 20662 ft | 180 kts | 122° |
| 2026-04-20 18:07 | 55.79982 | 21.79975 | 20814 ft | 203 kts | 124° |
| 2026-04-20 18:07 | 55.78958 | 21.81920 | 20822 ft | 226 kts | 125° |
| 2026-04-20 18:07 | 55.77842 | 21.84030 | 20822 ft | 242 kts | 126° |
| 2026-04-20 18:07 | 55.76664 | 21.86275 | 20824 ft | 254 kts | 126° |
| 2026-04-20 18:08 | 55.75444 | 21.88611 | 20821 ft | 261 kts | 124° |
| 2026-04-20 18:08 | 55.74212 | 21.91029 | 20821 ft | 267 kts | 128° |
| 2026-04-20 18:08 | 55.72880 | 21.93374 | 20822 ft | 271 kts | 129° |
| 2026-04-20 18:08 | 55.71604 | 21.95832 | 20817 ft | 271 kts | 124° |
| 2026-04-20 18:09 | 55.70345 | 21.98356 | 20817 ft | 274 kts | 126° |
| 2026-04-20 18:09 | 55.69033 | 22.00829 | 20814 ft | 277 kts | 127° |
| 2026-04-20 18:09 | 55.67745 | 22.03353 | 20805 ft | 274 kts | 121° |
| 2026-04-20 18:09 | 55.66758 | 22.06195 | 20795 ft | 269 kts | 113° |
| 2026-04-20 18:10 | 55.65857 | 22.09110 | 20804 ft | 270 kts | 114° |
| 2026-04-20 18:10 | 55.64940 | 22.12014 | 20804 ft | 270 kts | 114° |
| 2026-04-20 18:10 | 55.64026 | 22.14923 | 20809 ft | 270 kts | 114° |
| 2026-04-20 18:10 | 55.63115 | 22.17832 | 20811 ft | 270 kts | 114° |
| 2026-04-20 18:11 | 55.62202 | 22.20739 | 20806 ft | 271 kts | 114° |
| 2026-04-20 18:11 | 55.61297 | 22.23616 | 20807 ft | 271 kts | 114° |
| 2026-04-20 18:11 | 55.60379 | 22.26531 | 20807 ft | 271 kts | 114° |
| 2026-04-20 18:11 | 55.59458 | 22.29452 | 20805 ft | 271 kts | 114° |
| 2026-04-20 18:12 | 55.58536 | 22.32371 | 20804 ft | 272 kts | 114° |
| 2026-04-20 18:12 | 55.57616 | 22.35286 | 20800 ft | 272 kts | 114° |
| 2026-04-20 18:12 | 55.56691 | 22.38207 | 20800 ft | 272 kts | 114° |
| 2026-04-20 18:12 | 55.55766 | 22.41126 | 20795 ft | 272 kts | 114° |
| 2026-04-20 18:13 | 55.54840 | 22.44044 | 20799 ft | 272 kts | 114° |
| 2026-04-20 18:13 | 55.53913 | 22.46963 | 20792 ft | 273 kts | 114° |
| 2026-04-20 18:13 | 55.52982 | 22.49889 | 20788 ft | 273 kts | 114° |
| 2026-04-20 18:13 | 55.52063 | 22.52776 | 20786 ft | 273 kts | 114° |
| 2026-04-20 18:14 | 55.51128 | 22.55709 | 20784 ft | 273 kts | 114° |
| 2026-04-20 18:14 | 55.50194 | 22.58635 | 20778 ft | 273 kts | 114° |
| 2026-04-20 18:14 | 55.49261 | 22.61556 | 20774 ft | 274 kts | 114° |
| 2026-04-20 18:14 | 55.48325 | 22.64481 | 20775 ft | 274 kts | 114° |
| 2026-04-20 18:15 | 55.47388 | 22.67403 | 20774 ft | 274 kts | 114° |
| 2026-04-20 18:15 | 55.46448 | 22.70335 | 20772 ft | 274 kts | 114° |
| 2026-04-20 18:15 | 55.45510 | 22.73255 | 20772 ft | 274 kts | 114° |
| 2026-04-20 18:15 | 55.44567 | 22.76187 | 20771 ft | 274 kts | 115° |
| 2026-04-20 18:16 | 55.43626 | 22.79109 | 20769 ft | 275 kts | 115° |
| 2026-04-20 18:16 | 55.42685 | 22.82028 | 20771 ft | 274 kts | 115° |
| 2026-04-20 18:16 | 55.41740 | 22.84957 | 20770 ft | 275 kts | 115° |
| 2026-04-20 18:16 | 55.40807 | 22.87845 | 20770 ft | 275 kts | 115° |
| 2026-04-20 18:17 | 55.39862 | 22.90767 | 20765 ft | 275 kts | 115° |
| 2026-04-20 18:17 | 55.38916 | 22.93689 | 20765 ft | 275 kts | 115° |
| 2026-04-20 18:17 | 55.37968 | 22.96610 | 20766 ft | 275 kts | 115° |
| 2026-04-20 18:17 | 55.37020 | 22.99531 | 20764 ft | 275 kts | 115° |
| 2026-04-20 18:18 | 55.36070 | 23.02453 | 20759 ft | 275 kts | 115° |
| 2026-04-20 18:18 | 55.35119 | 23.05376 | 20759 ft | 275 kts | 115° |
| 2026-04-20 18:18 | 55.34168 | 23.08293 | 20757 ft | 275 kts | 115° |
| 2026-04-20 18:18 | 55.33215 | 23.11215 | 20758 ft | 276 kts | 115° |
| 2026-04-20 18:19 | 55.32258 | 23.14145 | 20758 ft | 276 kts | 115° |
| 2026-04-20 18:19 | 55.31302 | 23.17068 | 20756 ft | 276 kts | 115° |
| 2026-04-20 18:19 | 55.30347 | 23.19984 | 20756 ft | 276 kts | 115° |
| 2026-04-20 18:19 | 55.29388 | 23.22911 | 20757 ft | 276 kts | 115° |
| 2026-04-20 18:20 | 55.28430 | 23.25829 | 20751 ft | 276 kts | 115° |
| 2026-04-20 18:20 | 55.27468 | 23.28753 | 20754 ft | 276 kts | 115° |
| 2026-04-20 18:20 | 55.26509 | 23.31669 | 20750 ft | 276 kts | 115° |
| 2026-04-20 18:20 | 55.25550 | 23.34582 | 20751 ft | 276 kts | 115° |
| 2026-04-20 18:21 | 55.24587 | 23.37500 | 20753 ft | 276 kts | 115° |
| 2026-04-20 18:21 | 55.23623 | 23.40421 | 20752 ft | 276 kts | 115° |
| 2026-04-20 18:21 | 55.22670 | 23.43303 | 20751 ft | 276 kts | 115° |
| 2026-04-20 18:21 | 55.21705 | 23.46217 | 20744 ft | 277 kts | 115° |
| 2026-04-20 18:22 | 55.20737 | 23.49140 | 20742 ft | 277 kts | 115° |
| 2026-04-20 18:22 | 55.19770 | 23.52052 | 20743 ft | 277 kts | 115° |
| 2026-04-20 18:22 | 55.18800 | 23.54971 | 20742 ft | 277 kts | 115° |
| 2026-04-20 18:22 | 55.17829 | 23.57892 | 20742 ft | 277 kts | 115° |
| 2026-04-20 18:23 | 55.16861 | 23.60799 | 20741 ft | 277 kts | 115° |
| 2026-04-20 18:23 | 55.15888 | 23.63716 | 20741 ft | 277 kts | 115° |
| 2026-04-20 18:23 | 55.14915 | 23.66630 | 20741 ft | 277 kts | 115° |
| 2026-04-20 18:23 | 55.13954 | 23.69503 | 20738 ft | 277 kts | 115° |
| 2026-04-20 18:24 | 55.12979 | 23.72420 | 20741 ft | 278 kts | 115° |
| 2026-04-20 18:24 | 55.12002 | 23.75337 | 20741 ft | 278 kts | 115° |
| 2026-04-20 18:24 | 55.11024 | 23.78251 | 20740 ft | 278 kts | 115° |
| 2026-04-20 18:24 | 55.10047 | 23.81160 | 20741 ft | 278 kts | 115° |
| 2026-04-20 18:25 | 55.09072 | 23.84062 | 20740 ft | 278 kts | 115° |
| 2026-04-20 18:25 | 55.08089 | 23.86980 | 20745 ft | 278 kts | 115° |
| 2026-04-20 18:25 | 55.07107 | 23.89893 | 20743 ft | 278 kts | 115° |
| 2026-04-20 18:25 | 55.06126 | 23.92800 | 20749 ft | 278 kts | 115° |
| 2026-04-20 18:26 | 55.05145 | 23.95705 | 20749 ft | 278 kts | 115° |
| 2026-04-20 18:26 | 55.04160 | 23.98617 | 20749 ft | 278 kts | 115° |
| 2026-04-20 18:26 | 55.03186 | 24.01491 | 20742 ft | 278 kts | 115° |
| 2026-04-20 18:26 | 55.02202 | 24.04394 | 20748 ft | 278 kts | 115° |
| 2026-04-20 18:27 | 55.01217 | 24.07297 | 20749 ft | 278 kts | 115° |
| 2026-04-20 18:27 | 55.00229 | 24.10204 | 20748 ft | 279 kts | 115° |
| 2026-04-20 18:27 | 54.99241 | 24.13107 | 20745 ft | 279 kts | 116° |
| 2026-04-20 18:27 | 54.98251 | 24.16012 | 20747 ft | 279 kts | 115° |
| 2026-04-20 18:28 | 54.97261 | 24.18916 | 20749 ft | 279 kts | 116° |
| 2026-04-20 18:28 | 54.96270 | 24.21817 | 20752 ft | 279 kts | 116° |
| 2026-04-20 18:28 | 54.95249 | 24.24684 | 20758 ft | 281 kts | 121° |
| 2026-04-20 18:28 | 54.93950 | 24.27265 | 20759 ft | 285 kts | 127° |
| 2026-04-20 18:29 | 54.92635 | 24.29781 | 20754 ft | 275 kts | 126° |
| 2026-04-20 18:29 | 54.91387 | 24.32229 | 20743 ft | 266 kts | 126° |
| 2026-04-20 18:29 | 54.90169 | 24.34615 | 20565 ft | 265 kts | 126° |
| 2026-04-20 18:29 | 54.88888 | 24.37076 | 19630 ft | 281 kts | 128° |
| 2026-04-20 18:30 | 54.87550 | 24.39601 | 18687 ft | 287 kts | 127° |
| 2026-04-20 18:30 | 54.86231 | 24.42133 | 17685 ft | 285 kts | 127° |
| 2026-04-20 18:30 | 54.84913 | 24.44694 | 16661 ft | 284 kts | 127° |
| 2026-04-20 18:30 | 54.83598 | 24.47231 | 15672 ft | 282 kts | 128° |
| 2026-04-20 18:31 | 54.82284 | 24.49751 | 14709 ft | 280 kts | 128° |
| 2026-04-20 18:31 | 54.80980 | 24.52246 | 13754 ft | 278 kts | 128° |
| 2026-04-20 18:31 | 54.79688 | 24.54722 | 12725 ft | 276 kts | 129° |
| 2026-04-20 18:31 | 54.78403 | 24.57177 | 11716 ft | 273 kts | 129° |
| 2026-04-20 18:32 | 54.77134 | 24.59603 | 10750 ft | 270 kts | 130° |
| 2026-04-20 18:32 | 54.75878 | 24.62000 | 9777 ft | 268 kts | 130° |
| 2026-04-20 18:32 | 54.74896 | 24.63872 | 8963 ft | 265 kts | 130° |
| 2026-04-20 18:32 | 54.73661 | 24.66220 | 7951 ft | 262 kts | 130° |
| 2026-04-20 18:33 | 54.72437 | 24.68549 | 6966 ft | 259 kts | 130° |
| 2026-04-20 18:33 | 54.71233 | 24.70847 | 5984 ft | 257 kts | 130° |
| 2026-04-20 18:33 | 54.70085 | 24.73064 | 5720 ft | 236 kts | 128° |
| 2026-04-20 18:33 | 54.69024 | 24.75166 | 5711 ft | 228 kts | 129° |
| 2026-04-20 18:34 | 54.67960 | 24.77160 | 5709 ft | 224 kts | 130° |
| 2026-04-20 18:34 | 54.66907 | 24.79116 | 5711 ft | 221 kts | 129° |
| 2026-04-20 18:34 | 54.65875 | 24.81067 | 5712 ft | 219 kts | 129° |
| 2026-04-20 18:34 | 54.64850 | 24.83009 | 5711 ft | 218 kts | 129° |
| 2026-04-20 18:35 | 54.63826 | 24.84951 | 5711 ft | 218 kts | 129° |
| 2026-04-20 18:35 | 54.62808 | 24.86867 | 5712 ft | 213 kts | 129° |
| 2026-04-20 18:35 | 54.61836 | 24.88703 | 5712 ft | 207 kts | 129° |
| 2026-04-20 18:35 | 54.60876 | 24.90526 | 5712 ft | 203 kts | 129° |
| 2026-04-20 18:36 | 54.59930 | 24.92318 | 5712 ft | 201 kts | 129° |
| 2026-04-20 18:36 | 54.58986 | 24.94085 | 5714 ft | 200 kts | 131° |
| 2026-04-20 18:36 | 54.57850 | 24.95479 | 5726 ft | 202 kts | 147° |
| 2026-04-20 18:36 | 54.56649 | 24.96733 | 5718 ft | 201 kts | 144° |
| 2026-04-20 18:37 | 54.55465 | 24.98016 | 5714 ft | 198 kts | 145° |
| 2026-04-20 18:37 | 54.54314 | 24.99241 | 5714 ft | 192 kts | 144° |
| 2026-04-20 18:37 | 54.53167 | 25.00464 | 5371 ft | 203 kts | 145° |
| 2026-04-20 18:37 | 54.51900 | 25.01795 | 4752 ft | 220 kts | 146° |
| 2026-04-20 18:38 | 54.50575 | 25.03174 | 4120 ft | 221 kts | 146° |
| 2026-04-20 18:38 | 54.49287 | 25.04563 | 3492 ft | 215 kts | 140° |
| 2026-04-20 18:38 | 54.48273 | 25.06377 | 2852 ft | 208 kts | 122° |
| 2026-04-20 18:38 | 54.47637 | 25.08536 | 2421 ft | 193 kts | 107° |
| 2026-04-20 18:39 | 54.47184 | 25.10546 | 2416 ft | 169 kts | 109° |
| 2026-04-20 18:39 | 54.46797 | 25.12328 | 2410 ft | 149 kts | 100° |
| 2026-04-20 18:39 | 54.46747 | 25.13977 | 2408 ft | 131 kts | 76° |
| 2026-04-20 18:39 | 54.47094 | 25.15315 | 2409 ft | 117 kts | 50° |
| 2026-04-20 18:40 | 54.47495 | 25.15898 | 2409 ft | 111 kts | 31° |
| 2026-04-20 18:40 | 54.48464 | 25.16146 | 2408 ft | 104 kts | 8° |
| 2026-04-20 18:40 | 54.49137 | 25.16667 | 2431 ft | 118 kts | 34° |
| 2026-04-20 18:40 | 54.49844 | 25.17536 | 2436 ft | 131 kts | 42° |
| 2026-04-20 18:41 | 54.50319 | 25.18262 | 2433 ft | 138 kts | 43° |
| 2026-04-20 18:41 | 54.51050 | 25.19385 | 2434 ft | 146 kts | 43° |
| 2026-04-20 18:41 | 54.51805 | 25.20553 | 2437 ft | 139 kts | 43° |
| 2026-04-20 18:41 | 54.52492 | 25.21606 | 2435 ft | 130 kts | 43° |
| 2026-04-20 18:42 | 54.53154 | 25.22615 | 2438 ft | 124 kts | 43° |
| 2026-04-20 18:42 | 54.53855 | 25.23418 | 2432 ft | 121 kts | 24° |